Time;durP1;ratioP1;P1;durP2;ratioP2;P2;SDS_P1;SDS_P2;PMS_P1;PMS_P2;Temp;Humidity;BMP_temperature;BMP_pressure;BME280_temperature;BME280_humidity;BME280_pressure;Samples;Min_cycle;Max_cycle;Signal;HPM_P1;HPM_P2
2023/04/29 00:05:08;;;;;;;3.70;3.00;;;;;;;9.83;100.00;99538.66;1727594;83;21211;-80
2023/04/29 00:08:17;;;;;;;4.50;2.80;;;;;;;9.79;100.00;99536.85;1727726;83;21192;-80
2023/04/29 00:11:24;;;;;;;14.43;5.05;;;;;;;9.80;100.00;99538.54;1729097;83;21192;-80
2023/04/29 05:23:37;;;;;;;15.20;7.97;;;;;;;9.60;100.00;99633.00;1746880;81;21722;-79
2023/04/29 05:26:43;;;;;;;14.43;9.58;;;;;;;9.58;100.00;99635.05;1733125;83;21286;-79
2023/04/29 05:29:49;;;;;;;18.07;10.20;;;;;;;9.52;100.00;99635.80;1731998;83;21168;-79
2023/04/29 05:32:55;;;;;;;18.45;10.55;;;;;;;9.59;100.00;99638.10;1733244;83;21207;-79
2023/04/29 05:36:01;;;;;;;20.17;10.55;;;;;;;9.72;100.00;99642.41;1733146;83;21232;-79
2023/04/29 05:39:07;;;;;;;16.60;9.35;;;;;;;9.62;100.00;99642.69;1732515;83;21220;-79
2023/04/29 05:42:14;;;;;;;13.43;8.65;;;;;;;9.75;100.00;99654.85;1733148;83;21196;-79
2023/04/29 05:45:19;;;;;;;15.35;9.03;;;;;;;9.78;100.00;99645.75;1733137;83;21183;-79
2023/04/29 05:48:17;;;;;;;19.25;11.25;;;;;;;9.69;100.00;99649.11;1733030;83;22675;-79
2023/04/29 05:51:22;;;;;;;14.75;8.75;;;;;;;9.68;100.00;99657.47;1733043;83;21177;-79
2023/04/29 05:54:27;;;;;;;22.05;10.28;;;;;;;9.80;100.00;99661.45;1733086;83;21177;-80
2023/04/29 05:57:20;;;;;;;17.70;8.53;;;;;;;9.82;100.00;99675.75;1731722;83;21185;-79
2023/04/29 06:00:25;;;;;;;26.68;10.40;;;;;;;9.93;100.00;99688.97;1731843;83;21184;-79
2023/04/29 06:03:25;;;;;;;17.65;8.30;;;;;;;9.96;100.00;99691.30;1733271;83;21172;-79
2023/04/29 06:06:52;;;;;;;19.67;6.78;;;;;;;10.07;100.00;99687.77;1733400;83;21246;-79
2023/04/29 06:09:58;;;;;;;14.68;7.65;;;;;;;10.08;100.00;99683.50;1730857;83;21200;-79
2023/04/29 06:13:06;;;;;;;13.18;6.53;;;;;;;10.07;100.00;99690.50;1733026;83;21172;-79
2023/04/29 06:16:12;;;;;;;15.20;6.72;;;;;;;10.09;100.00;99686.56;1731694;83;21787;-79
2023/04/29 06:19:19;;;;;;;15.05;5.92;;;;;;;10.08;100.00;99692.22;1732548;83;21255;-79
2023/04/29 06:22:26;;;;;;;8.60;5.70;;;;;;;10.08;100.00;99704.00;1733043;83;21326;-79
2023/04/29 06:25:31;;;;;;;9.95;4.22;;;;;;;10.10;100.00;99702.44;1732962;82;21192;-81
2023/04/29 06:28:37;;;;;;;4.20;3.00;;;;;;;9.89;100.00;99712.75;1733208;83;21188;-80
2023/04/29 06:31:44;;;;;;;5.65;3.80;;;;;;;10.08;100.00;99712.72;1733209;83;22467;-80
2023/04/29 06:34:50;;;;;;;6.03;3.30;;;;;;;10.08;100.00;99716.81;1733073;83;21645;-80
2023/04/29 06:38:13;;;;;;;6.42;2.80;;;;;;;10.13;100.00;99719.83;1732596;83;21909;-80
2023/04/29 06:41:22;;;;;;;5.50;2.70;;;;;;;10.09;100.00;99734.90;1733153;83;21232;-81
2023/04/29 06:44:45;;;;;;;6.53;2.72;;;;;;;10.12;100.00;99736.75;1733162;83;21216;-80
2023/04/29 06:48:02;;;;;;;6.15;3.10;;;;;;;10.13;100.00;99741.69;1731725;83;21180;-80
2023/04/29 06:51:10;;;;;;;5.12;2.85;;;;;;;10.17;100.00;99745.75;1731903;83;21203;-80
2023/04/29 06:54:16;;;;;;;4.62;2.92;;;;;;;10.31;100.00;99742.21;1731973;83;21771;-80
2023/04/29 06:57:22;;;;;;;8.45;3.00;;;;;;;10.33;100.00;99739.28;1733034;83;21232;-81
2023/04/29 07:00:28;;;;;;;4.95;2.77;;;;;;;10.37;100.00;99752.91;1732249;83;21204;-81
2023/04/29 07:03:33;;;;;;;4.17;2.80;;;;;;;10.27;100.00;99740.88;1733151;83;21227;-81
2023/04/29 07:06:39;;;;;;;5.72;3.27;;;;;;;10.30;100.00;99734.17;1733171;83;21156;-81
2023/04/29 07:09:45;;;;;;;7.45;4.03;;;;;;;10.34;100.00;99733.61;1731978;83;21504;-80
2023/04/29 07:12:52;;;;;;;4.22;2.83;;;;;;;10.41;100.00;99728.25;1732988;83;21867;-80
2023/04/29 07:15:57;;;;;;;5.55;2.90;;;;;;;10.48;100.00;99734.13;1733052;83;21188;-80
2023/04/29 07:19:04;;;;;;;4.35;2.90;;;;;;;10.52;100.00;99726.39;1731914;83;21247;-81
2023/04/29 07:22:09;;;;;;;4.03;2.87;;;;;;;10.57;100.00;99738.12;1731647;83;21304;-81
2023/04/29 07:25:14;;;;;;;5.78;2.95;;;;;;;10.59;100.00;99742.91;1732939;83;21561;-81
2023/04/29 07:28:20;;;;;;;6.22;2.60;;;;;;;10.54;100.00;99735.77;1743712;82;21179;-81
2023/04/29 07:31:25;;;;;;;5.87;3.00;;;;;;;10.54;100.00;99731.17;1742800;82;22435;-81
2023/04/29 07:34:33;;;;;;;6.50;3.25;;;;;;;10.59;100.00;99733.34;1743858;82;21192;-81
2023/04/29 07:37:38;;;;;;;11.15;2.77;;;;;;;10.62;100.00;99737.03;1744082;82;21216;-80
2023/04/29 07:40:45;;;;;;;6.37;3.35;;;;;;;10.63;100.00;99727.79;1743465;82;21331;-81
2023/04/29 07:43:50;;;;;;;7.92;2.90;;;;;;;10.53;100.00;99721.25;1743923;82;21176;-81
2023/04/29 07:46:56;;;;;;;8.75;3.30;;;;;;;10.60;100.00;99718.09;1743936;82;21172;-80
2023/04/29 07:50:02;;;;;;;4.20;2.77;;;;;;;10.61;100.00;99719.78;1743900;82;21734;-80
2023/04/29 07:53:08;;;;;;;6.15;3.00;;;;;;;10.53;100.00;99716.30;1742537;82;21164;-81
2023/04/29 07:56:16;;;;;;;6.50;2.75;;;;;;;10.65;100.00;99717.00;1743990;82;22430;-81
2023/04/29 07:59:22;;;;;;;7.03;3.50;;;;;;;10.72;100.00;99714.33;1743634;82;21874;-80
2023/04/29 08:02:28;;;;;;;3.40;2.50;;;;;;;10.79;100.00;99700.23;1744232;82;21243;-80
2023/04/29 08:05:36;;;;;;;4.37;3.15;;;;;;;10.81;100.00;99698.14;1743857;82;21176;-81
2023/04/29 08:08:42;;;;;;;7.10;3.40;;;;;;;10.80;100.00;99706.02;1743926;82;21176;-81
2023/04/29 08:11:47;;;;;;;7.10;3.58;;;;;;;10.78;100.00;99704.02;1742975;82;21180;-81
2023/04/29 08:14:53;;;;;;;3.40;2.85;;;;;;;10.88;100.00;99708.66;1743881;82;21168;-81
2023/04/29 08:18:00;;;;;;;7.42;3.67;;;;;;;10.84;100.00;99705.13;1742542;82;22005;-80
2023/04/29 08:21:06;;;;;;;3.55;2.80;;;;;;;10.88;100.00;99689.50;1742579;82;21751;-81
2023/04/29 08:24:12;;;;;;;10.68;3.47;;;;;;;10.90;100.00;99693.40;1744080;82;21236;-80
2023/04/29 08:27:18;;;;;;;6.75;3.50;;;;;;;10.93;100.00;99705.34;1741600;82;21616;-81
2023/04/29 08:30:24;;;;;;;6.08;3.08;;;;;;;11.10;100.00;99691.72;1733057;83;21160;-81
2023/04/29 08:33:29;;;;;;;6.28;3.87;;;;;;;11.13;100.00;99697.33;1733080;83;21220;-81
2023/04/29 08:36:37;;;;;;;5.28;3.55;;;;;;;11.09;100.00;99700.12;1733130;83;21176;-80
2023/04/29 08:39:45;;;;;;;6.47;3.70;;;;;;;11.15;100.00;99695.23;1733435;83;21236;-80
2023/04/29 08:42:51;;;;;;;4.70;3.33;;;;;;;11.35;100.00;99694.09;1731727;83;21208;-80
2023/04/29 08:45:58;;;;;;;6.03;3.98;;;;;;;11.36;100.00;99702.09;1733142;83;21770;-81
2023/04/29 08:49:04;;;;;;;8.15;4.70;;;;;;;11.44;100.00;99700.59;1733148;83;21220;-80
2023/04/29 08:52:11;;;;;;;5.45;4.33;;;;;;;11.39;100.00;99707.72;1732443;83;21164;-81
2023/04/29 08:55:17;;;;;;;12.68;8.38;;;;;;;11.42;100.00;99699.09;1715783;83;21271;-80
2023/04/29 08:58:25;;;;;;;20.10;11.65;;;;;;;11.50;100.00;99704.44;1732999;83;21231;-80
2023/04/29 09:01:36;;;;;;;16.20;10.98;;;;;;;11.55;100.00;99687.41;1732899;83;21220;-81
2023/04/29 09:04:56;;;;;;;36.88;24.98;;;;;;;11.60;100.00;99695.87;1732002;83;21197;-81
2023/04/29 09:08:03;;;;;;;17.27;12.43;;;;;;;11.73;100.00;99680.40;1733277;83;21223;-81
2023/04/29 09:11:10;;;;;;;8.05;5.35;;;;;;;11.87;100.00;99688.75;1715444;83;21220;-81
2023/04/29 09:14:15;;;;;;;8.60;4.70;;;;;;;11.59;100.00;99690.09;1733237;83;21291;-81
2023/04/29 09:17:21;;;;;;;5.67;4.70;;;;;;;11.61;100.00;99686.09;1733124;83;21184;-80
2023/04/29 09:20:32;;;;;;;8.55;4.47;;;;;;;11.56;100.00;99680.88;1733093;83;21220;-81
2023/04/29 09:23:44;;;;;;;15.78;10.85;;;;;;;11.47;100.00;99675.54;1733053;83;21206;-81
2023/04/29 09:26:50;;;;;;;13.95;10.50;;;;;;;11.39;100.00;99691.28;1732190;83;21217;-81
2023/04/29 09:30:08;;;;;;;9.38;6.97;;;;;;;11.42;100.00;99682.66;1740851;81;21199;-81
2023/04/29 09:33:16;;;;;;;10.70;6.97;;;;;;;11.42;100.00;99668.97;1742994;82;21163;-81
2023/04/29 09:36:46;;;;;;;7.15;6.30;;;;;;;11.59;100.00;99669.54;1743957;82;21180;-81
2023/04/29 09:39:52;;;;;;;9.78;6.40;;;;;;;11.73;100.00;99657.11;1743988;82;21163;-80
2023/04/29 09:42:57;;;;;;;12.40;7.35;;;;;;;11.81;100.00;99666.21;1743039;82;21758;-81
2023/04/29 09:46:02;;;;;;;13.65;7.80;;;;;;;11.90;100.00;99662.30;1743865;82;21176;-80
2023/04/29 09:49:11;;;;;;;11.80;8.50;;;;;;;11.93;100.00;99652.32;1742407;82;21176;-79
2023/04/29 09:52:19;;;;;;;16.23;8.83;;;;;;;12.08;100.00;99663.16;1743646;82;21205;-79
2023/04/29 09:55:28;;;;;;;15.13;9.17;;;;;;;12.24;100.00;99669.17;1744178;82;21208;-79
2023/04/29 09:58:41;;;;;;;11.40;8.55;;;;;;;12.41;100.00;99657.32;1744037;82;22428;-79
2023/04/29 10:01:48;;;;;;;9.95;7.78;;;;;;;12.48;100.00;99669.18;1744077;82;21204;-79
2023/04/29 10:04:59;;;;;;;11.48;8.93;;;;;;;12.51;100.00;99672.90;1743935;82;21180;-79
2023/04/29 10:08:06;;;;;;;16.62;10.32;;;;;;;12.50;100.00;99685.42;1743966;82;21174;-80
2023/04/29 10:11:11;;;;;;;15.18;9.13;;;;;;;12.56;100.00;99705.70;1743886;82;21218;-79
2023/04/29 10:14:22;;;;;;;10.53;9.35;;;;;;;12.49;100.00;99687.86;1742769;82;21180;-79
2023/04/29 10:17:31;;;;;;;15.23;8.23;;;;;;;12.39;100.00;99700.57;1743907;82;21164;-79
2023/04/29 10:20:37;;;;;;;14.55;7.47;;;;;;;12.28;100.00;99699.78;1742631;80;21160;-79
2023/04/29 10:23:43;;;;;;;14.18;8.50;;;;;;;12.31;100.00;99700.73;1743200;82;21212;-79
2023/04/29 10:26:51;;;;;;;12.30;8.00;;;;;;;12.32;100.00;99707.06;1742801;82;21219;-79
2023/04/29 10:29:57;;;;;;;11.05;7.70;;;;;;;12.41;100.00;99701.73;1739368;81;21196;-80
2023/04/29 10:33:06;;;;;;;14.40;7.58;;;;;;;12.39;100.00;99706.06;1743502;82;21168;-79
2023/04/29 10:36:11;;;;;;;11.93;7.15;;;;;;;12.32;100.00;99698.83;1742448;82;21180;-79
2023/04/29 10:39:21;;;;;;;9.48;6.05;;;;;;;12.26;100.00;99699.13;1744135;82;21182;-79
2023/04/29 10:42:59;;;;;;;7.83;5.37;;;;;;;12.32;100.00;99699.67;1743277;82;21247;-80
2023/04/29 10:46:28;;;;;;;7.83;5.70;;;;;;;12.39;100.00;99718.40;1743801;82;21231;-81
2023/04/29 10:49:32;;;;;;;11.50;6.95;;;;;;;12.39;100.00;99716.19;1744544;82;21176;-80
2023/04/29 10:52:39;;;;;;;21.33;11.80;;;;;;;12.43;100.00;99715.58;1716176;82;21180;-81
2023/04/29 10:55:44;;;;;;;10.18;7.40;;;;;;;12.44;100.00;99710.94;1743962;82;21160;-80
2023/04/29 10:58:51;;;;;;;12.47;5.97;;;;;;;12.46;100.00;99715.16;1742481;82;21257;-80
2023/04/29 11:01:59;;;;;;;9.18;5.83;;;;;;;12.47;100.00;99716.88;1742557;82;21770;-80
2023/04/29 11:05:17;;;;;;;10.40;6.33;;;;;;;12.49;100.00;99725.73;1743914;82;21790;-80
2023/04/29 11:08:26;;;;;;;;;;;;;;;12.54;100.00;99725.13;1746432;82;21334;-80
2023/04/29 11:11:32;;;;;;;6.85;5.15;;;;;;;12.45;100.00;99713.47;1700558;83;20224;-80
2023/04/29 11:14:48;;;;;;;9.58;5.37;;;;;;;12.47;100.00;99726.47;1742468;82;21298;-80
2023/04/29 11:17:54;;;;;;;7.00;5.50;;;;;;;12.49;100.00;99738.60;1743738;82;21200;-80
2023/04/29 11:21:18;;;;;;;6.95;4.50;;;;;;;12.37;100.00;99735.56;1743865;82;21223;-80
2023/04/29 11:24:24;;;;;;;4.33;3.90;;;;;;;12.36;100.00;99725.65;1743065;82;21204;-80
2023/04/29 11:27:33;;;;;;;8.93;3.33;;;;;;;12.37;100.00;99728.70;1743812;82;21215;-80
2023/04/29 11:30:39;;;;;;;8.28;3.60;;;;;;;12.32;100.00;99735.33;1743814;82;21852;-80
2023/04/29 11:33:45;;;;;;;8.60;4.15;;;;;;;12.37;100.00;99726.49;1742433;82;21805;-80
2023/04/29 11:36:52;;;;;;;7.65;4.40;;;;;;;12.38;100.00;99726.84;1743806;82;21164;-80
2023/04/29 11:39:58;;;;;;;7.10;4.53;;;;;;;12.07;100.00;99730.00;1743887;82;21239;-80
2023/04/29 11:43:04;;;;;;;10.75;6.83;;;;;;;12.35;100.00;99732.72;1733739;82;21231;-80
2023/04/29 11:46:10;;;;;;;11.30;6.78;;;;;;;12.27;100.00;99725.48;1743934;82;21180;-80
2023/04/29 11:49:17;;;;;;;9.35;5.22;;;;;;;12.28;100.00;99737.64;1742683;80;21176;-80
2023/04/29 11:52:22;;;;;;;6.97;4.42;;;;;;;12.08;100.00;99714.72;1742575;82;21227;-80
2023/04/29 11:55:27;;;;;;;7.55;4.70;;;;;;;12.10;100.00;99715.91;1742717;82;21187;-80
2023/04/29 11:58:34;;;;;;;10.50;5.20;;;;;;;12.17;100.00;99726.37;1743401;82;21215;-80
2023/04/29 12:01:39;;;;;;;7.12;5.55;;;;;;;12.21;100.00;99713.44;1743922;82;21871;-80
2023/04/29 12:04:53;;;;;;;8.28;5.58;;;;;;;12.26;100.00;99711.46;1743222;82;21259;-80
2023/04/29 12:08:02;;;;;;;9.25;4.97;;;;;;;12.29;100.00;99719.30;1743916;82;21532;-80
2023/04/29 12:11:07;;;;;;;8.98;5.45;;;;;;;12.19;100.00;99701.84;1743727;82;21156;-80
2023/04/29 12:14:13;;;;;;;10.98;5.40;;;;;;;12.16;100.00;99693.16;1743017;82;21250;-80
2023/04/29 12:17:20;;;;;;;10.98;5.20;;;;;;;12.10;100.00;99695.34;1743764;82;21220;-80
2023/04/29 12:20:25;;;;;;;17.15;8.05;;;;;;;12.01;100.00;99699.61;1733095;82;21184;-80
2023/04/29 12:23:31;;;;;;;13.45;7.17;;;;;;;11.97;100.00;99691.45;1743767;82;21782;-80
2023/04/29 12:26:38;;;;;;;10.72;6.60;;;;;;;11.96;100.00;99698.52;1743994;82;21176;-80
2023/04/29 12:29:45;;;;;;;8.75;5.67;;;;;;;12.00;100.00;99714.89;1733855;82;21202;-80
2023/04/29 12:32:52;;;;;;;8.30;6.08;;;;;;;11.94;100.00;99715.14;1743849;82;21718;-80
2023/04/29 12:36:00;;;;;;;9.30;5.45;;;;;;;11.77;100.00;99715.11;1742954;82;21172;-80
2023/04/29 12:39:09;;;;;;;9.23;5.08;;;;;;;11.86;100.00;99713.10;1743946;82;21212;-80
2023/04/29 12:42:15;;;;;;;11.57;5.90;;;;;;;11.86;100.00;99708.47;1743949;82;21736;-80
2023/04/29 12:45:35;;;;;;;8.18;5.50;;;;;;;11.80;100.00;99706.47;1733515;82;21833;-80
2023/04/29 12:48:42;;;;;;;12.33;8.73;;;;;;;11.82;100.00;99699.44;1744036;82;21184;-80
2023/04/29 12:51:48;;;;;;;12.10;9.00;;;;;;;11.94;100.00;99700.06;1744367;82;21225;-80
2023/04/29 12:54:53;;;;;;;10.08;7.60;;;;;;;11.92;100.00;99723.26;1743749;82;21187;-80
2023/04/29 12:57:58;;;;;;;11.30;7.35;;;;;;;11.82;100.00;99711.27;1742567;80;21167;-80
2023/04/29 13:01:04;;;;;;;10.53;7.12;;;;;;;11.80;100.00;99699.62;1742600;82;21239;-80
2023/04/29 13:04:10;;;;;;;12.25;6.87;;;;;;;11.78;100.00;99709.94;1744001;82;21176;-80
2023/04/29 13:07:17;;;;;;;8.28;5.80;;;;;;;11.87;100.00;99711.52;1742479;82;21191;-80
2023/04/29 13:10:22;;;;;;;9.78;5.92;;;;;;;11.90;100.00;99716.62;1734382;82;21164;-80
2023/04/29 13:13:29;;;;;;;10.88;6.50;;;;;;;11.78;100.00;99714.05;1743964;82;21235;-80
2023/04/29 13:16:34;;;;;;;10.05;7.33;;;;;;;11.86;100.00;99708.99;1742765;82;21260;-80
2023/04/29 13:19:39;;;;;;;17.80;9.50;;;;;;;11.90;100.00;99715.25;1743720;82;21378;-80
2023/04/29 13:22:47;;;;;;;16.67;9.48;;;;;;;11.82;100.00;99712.64;1743893;82;21739;-80
2023/04/29 13:25:52;;;;;;;10.38;7.55;;;;;;;11.75;100.00;99715.80;1743302;82;21333;-80
2023/04/29 13:28:57;;;;;;;10.72;7.40;;;;;;;11.68;100.00;99713.55;1744021;82;21156;-80
2023/04/29 13:32:03;;;;;;;12.45;9.30;;;;;;;11.63;100.00;99707.30;1744100;82;21192;-80
2023/04/29 13:35:09;;;;;;;16.67;12.50;;;;;;;11.64;100.00;99718.57;1737105;81;21271;-80
2023/04/29 13:38:17;;;;;;;13.90;9.95;;;;;;;11.48;100.00;99714.75;1733176;83;21224;-80
2023/04/29 13:41:22;;;;;;;13.22;8.63;;;;;;;11.48;100.00;99707.91;1733401;83;21161;-80
2023/04/29 13:44:28;;;;;;;13.88;8.28;;;;;;;11.42;100.00;99705.94;1733002;83;21291;-80
2023/04/29 13:47:35;;;;;;;14.47;9.05;;;;;;;11.28;100.00;99703.59;1732640;83;21552;-81
2023/04/29 13:50:43;;;;;;;14.07;8.83;;;;;;;11.25;100.00;99698.52;1731169;83;21188;-81
2023/04/29 13:53:50;;;;;;;12.40;8.98;;;;;;;11.30;100.00;99691.94;1731895;83;21345;-81
2023/04/29 13:56:57;;;;;;;10.72;7.58;;;;;;;11.25;100.00;99702.63;1731669;83;21184;-80
2023/04/29 14:00:07;;;;;;;14.68;8.03;;;;;;;10.99;100.00;99694.98;1732480;83;21728;-80
2023/04/29 14:03:12;;;;;;;12.35;9.93;;;;;;;11.06;100.00;99687.70;1732446;83;21723;-81
2023/04/29 14:06:19;;;;;;;12.37;10.30;;;;;;;11.14;100.00;99686.70;1732591;83;21255;-80
2023/04/29 14:09:25;;;;;;;13.50;9.30;;;;;;;11.23;100.00;99689.64;1733103;83;21220;-80
2023/04/29 14:12:31;;;;;;;13.30;8.23;;;;;;;11.26;100.00;99684.62;1733244;83;21172;-81
2023/04/29 14:15:36;;;;;;;15.90;7.92;;;;;;;11.32;100.00;99698.05;1732752;83;21303;-80
2023/04/29 14:18:42;;;;;;;11.30;6.28;;;;;;;11.26;100.00;99693.37;1733038;83;21236;-80
2023/04/29 14:21:47;;;;;;;6.50;4.87;;;;;;;11.29;100.00;99697.06;1731765;83;21739;-80
2023/04/29 14:24:53;;;;;;;10.75;5.47;;;;;;;11.34;100.00;99690.50;1731847;83;21787;-81
2023/04/29 14:27:59;;;;;;;9.03;5.35;;;;;;;11.44;100.00;99696.49;1731775;83;21255;-80
2023/04/29 14:31:06;;;;;;;7.45;4.92;;;;;;;11.10;100.00;99697.72;1732244;83;21827;-81
2023/04/29 14:34:11;;;;;;;7.00;5.00;;;;;;;11.06;100.00;99710.12;1731711;83;21181;-80
2023/04/29 14:37:18;;;;;;;6.08;4.37;;;;;;;11.19;100.00;99705.60;1731615;81;21247;-80
2023/04/29 14:40:23;;;;;;;6.80;4.75;;;;;;;11.09;100.00;99705.60;1733254;83;21228;-80
2023/04/29 14:43:29;;;;;;;14.55;5.53;;;;;;;11.03;100.00;99706.39;1732982;83;21785;-81
2023/04/29 14:46:35;;;;;;;7.85;4.53;;;;;;;11.12;100.00;99710.70;1732470;83;21261;-80
2023/04/29 14:49:41;;;;;;;9.65;4.55;;;;;;;11.14;100.00;99692.18;1733179;83;21176;-80
2023/04/29 14:52:46;;;;;;;7.05;4.65;;;;;;;11.11;100.00;99695.33;1733110;83;21172;-80
2023/04/29 14:55:52;;;;;;;8.70;4.67;;;;;;;11.17;100.00;99690.44;1733118;83;21172;-80
2023/04/29 14:58:58;;;;;;;13.68;6.62;;;;;;;11.11;100.00;99679.75;1733280;83;21224;-80
2023/04/29 15:02:04;;;;;;;11.88;7.92;;;;;;;11.12;100.00;99679.22;1732330;83;21208;-80
2023/04/29 15:05:11;;;;;;;16.25;8.38;;;;;;;11.11;100.00;99673.43;1733117;83;21177;-80
2023/04/29 15:08:16;;;;;;;10.70;6.15;;;;;;;11.14;100.00;99679.86;1731916;83;21220;-80
2023/04/29 15:11:23;;;;;;;9.73;5.00;;;;;;;11.18;100.00;99671.59;1733138;83;21763;-80
2023/04/29 15:14:21;;;;;;;9.88;6.08;;;;;;;11.08;100.00;99670.55;1733215;83;21173;-80
2023/04/29 15:17:27;;;;;;;10.78;4.92;;;;;;;11.15;100.00;99680.18;1733023;83;22494;-80
2023/04/29 15:20:34;;;;;;;9.38;5.10;;;;;;;11.11;100.00;99663.33;1732970;83;21228;-80
2023/04/29 15:23:39;;;;;;;8.23;5.12;;;;;;;11.07;100.00;99667.49;1732948;83;21473;-80
2023/04/29 15:26:47;;;;;;;8.93;4.87;;;;;;;11.10;100.00;99663.50;1733085;83;21771;-80
2023/04/29 15:29:55;;;;;;;11.70;4.30;;;;;;;10.87;100.00;99653.61;1733026;83;21176;-81
2023/04/29 15:33:04;;;;;;;6.75;4.20;;;;;;;10.81;100.00;99662.58;1732839;83;21247;-80
2023/04/29 15:36:09;;;;;;;10.18;4.50;;;;;;;10.74;100.00;99660.30;1731664;82;21228;-80
2023/04/29 15:39:15;;;;;;;10.50;5.12;;;;;;;10.88;100.00;99666.24;1733165;83;21172;-80
2023/04/29 15:42:21;;;;;;;6.50;3.98;;;;;;;10.89;100.00;99661.61;1733061;83;21180;-80
2023/04/29 15:45:26;;;;;;;5.95;4.37;;;;;;;10.85;100.00;99666.63;1733064;83;21165;-81
2023/04/29 15:48:34;;;;;;;6.60;4.72;;;;;;;10.89;100.00;99659.72;1731832;83;21223;-80
2023/04/29 15:51:40;;;;;;;13.50;7.78;;;;;;;10.80;100.00;99656.78;1733123;83;21180;-80
2023/04/29 15:54:46;;;;;;;8.55;4.10;;;;;;;10.75;100.00;99654.62;1733002;83;21176;-80
2023/04/29 15:57:52;;;;;;;7.05;4.20;;;;;;;10.73;100.00;99651.77;1731687;83;21188;-80
2023/04/29 16:00:57;;;;;;;8.50;4.80;;;;;;;10.71;100.00;99668.88;1732072;83;21220;-80
2023/04/29 16:04:04;;;;;;;8.68;4.55;;;;;;;10.77;100.00;99673.56;1732146;83;21220;-80
2023/04/29 16:07:10;;;;;;;5.10;3.95;;;;;;;10.76;100.00;99681.45;1733217;83;21215;-80
2023/04/29 16:10:16;;;;;;;5.08;3.37;;;;;;;10.66;100.00;99678.19;1731822;83;21196;-79
2023/04/29 16:13:21;;;;;;;7.20;4.30;;;;;;;10.79;100.00;99690.66;1731907;83;21196;-79
2023/04/29 16:16:28;;;;;;;9.93;4.30;;;;;;;10.64;100.00;99687.96;1733096;83;21164;-79
2023/04/29 16:19:33;;;;;;;11.18;4.92;;;;;;;10.58;100.00;99672.81;1731877;83;21622;-79
2023/04/29 16:22:41;;;;;;;8.15;4.35;;;;;;;10.59;100.00;99673.17;1731783;83;21228;-82
2023/04/29 16:25:50;;;;;;;7.00;4.35;;;;;;;10.56;100.00;99672.17;1731956;83;21191;-82
2023/04/29 16:28:56;;;;;;;7.37;5.25;;;;;;;10.53;100.00;99678.86;1731820;83;21389;-79
2023/04/29 16:32:05;;;;;;;13.18;5.55;;;;;;;10.45;100.00;99670.79;1733156;83;21161;-80
2023/04/29 16:35:09;;;;;;;10.90;5.53;;;;;;;10.52;100.00;99676.33;1733296;83;21157;-80
2023/04/29 16:38:16;;;;;;;8.30;5.10;;;;;;;10.45;100.00;99662.06;1737500;81;21262;-80
2023/04/29 16:41:22;;;;;;;8.53;5.17;;;;;;;10.49;100.00;99662.02;1742480;82;21223;-80
2023/04/29 16:44:28;;;;;;;9.30;5.40;;;;;;;10.54;100.00;99660.56;1743948;82;21730;-79
2023/04/29 16:47:34;;;;;;;8.05;4.90;;;;;;;10.51;100.00;99657.71;1743904;82;21180;-80
2023/04/29 16:50:40;;;;;;;10.38;4.65;;;;;;;10.48;100.00;99662.19;1744022;82;21227;-80
2023/04/29 16:53:47;;;;;;;8.38;5.08;;;;;;;10.42;100.00;99662.44;1742559;82;21190;-80
2023/04/29 16:56:48;;;;;;;7.87;4.80;;;;;;;10.45;100.00;99664.80;1743886;82;21246;-80
2023/04/29 16:59:40;;;;;;;7.40;4.70;;;;;;;10.55;100.00;99662.28;1742831;82;21219;-80
2023/04/29 17:02:47;;;;;;;9.48;4.58;;;;;;;10.49;100.00;99669.34;1743901;82;21196;-79
2023/04/29 17:05:53;;;;;;;10.35;4.33;;;;;;;10.51;100.00;99678.22;1744000;82;21160;-80
2023/04/29 17:08:58;;;;;;;9.33;4.25;;;;;;;10.50;100.00;99665.59;1743449;82;21211;-79
2023/04/29 17:12:05;;;;;;;6.42;4.37;;;;;;;10.44;100.00;99669.95;1743947;82;21219;-80
2023/04/29 17:15:12;;;;;;;6.37;4.75;;;;;;;10.44;100.00;99661.74;1743798;82;21299;-79
2023/04/29 17:18:18;;;;;;;12.37;4.28;;;;;;;10.44;100.00;99668.58;1743847;82;21223;-79
2023/04/29 17:21:24;;;;;;;9.90;4.45;;;;;;;10.57;100.00;99664.30;1743920;82;21180;-80
2023/04/29 17:24:31;;;;;;;6.75;4.03;;;;;;;10.62;100.00;99672.77;1742527;80;21183;-80
2023/04/29 17:27:37;;;;;;;7.90;4.45;;;;;;;10.66;100.00;99677.66;1742576;82;21192;-80
2023/04/29 17:30:43;;;;;;;7.12;4.42;;;;;;;10.57;100.00;99676.60;1742567;82;21199;-80
2023/04/29 17:34:04;;;;;;;8.03;4.15;;;;;;;10.52;100.00;99678.55;1743690;82;21211;-79
2023/04/29 17:37:03;;;;;;;7.03;3.65;;;;;;;10.47;100.00;99674.17;1742545;82;22471;-79
2023/04/29 17:40:07;;;;;;;10.23;4.53;;;;;;;10.60;100.00;99683.06;1742817;82;21196;-80
2023/04/29 17:43:14;;;;;;;6.08;4.47;;;;;;;10.62;100.00;99663.20;1743908;82;21180;-80
2023/04/29 17:46:20;;;;;;;5.75;3.50;;;;;;;10.61;100.00;99661.51;1744126;82;21735;-80
2023/04/29 17:49:26;;;;;;;5.00;3.42;;;;;;;10.69;100.00;99645.84;1743492;82;21215;-79
2023/04/29 17:52:32;;;;;;;6.08;3.08;;;;;;;10.69;100.00;99639.52;1743962;82;21176;-80
2023/04/29 17:55:38;;;;;;;5.37;3.10;;;;;;;10.66;100.00;99635.27;1743997;82;21350;-80
2023/04/29 17:58:44;;;;;;;8.73;5.35;;;;;;;10.59;100.00;99631.62;1742502;80;21703;-79
2023/04/29 18:01:51;;;;;;;8.20;3.85;;;;;;;10.63;100.00;99659.41;1742623;82;21184;-80
2023/04/29 18:04:56;;;;;;;17.27;10.15;;;;;;;10.54;100.00;99617.69;1743254;82;21781;-80
2023/04/29 18:08:01;;;;;;;8.90;4.50;;;;;;;10.53;100.00;99626.91;1743884;82;21781;-79
2023/04/29 18:11:07;;;;;;;5.78;3.60;;;;;;;10.59;100.00;99630.78;1742710;82;21214;-79
2023/04/29 18:14:14;;;;;;;5.40;3.95;;;;;;;10.27;100.00;99638.38;1743915;82;22502;-80
2023/04/29 18:17:20;;;;;;;4.58;3.37;;;;;;;10.45;100.00;99629.26;1743898;82;21800;-79
2023/04/29 18:20:25;;;;;;;6.50;4.40;;;;;;;10.40;100.00;99631.72;1743090;82;21195;-79
2023/04/29 18:23:31;;;;;;;7.60;5.92;;;;;;;10.29;100.00;99639.55;1742441;82;21231;-79
2023/04/29 18:26:36;;;;;;;12.60;7.45;;;;;;;10.28;100.00;99641.96;1744023;82;21232;-80
2023/04/29 18:29:42;;;;;;;11.45;7.05;;;;;;;10.27;100.00;99637.02;1743560;82;21754;-79
2023/04/29 18:32:49;;;;;;;8.63;5.80;;;;;;;10.17;100.00;99635.07;1743857;82;21227;-79
2023/04/29 18:35:54;;;;;;;6.70;5.12;;;;;;;10.12;100.00;99627.96;1742897;82;21214;-79
2023/04/29 18:39:00;;;;;;;7.37;5.08;;;;;;;10.12;100.00;99625.23;1742546;82;21176;-79
2023/04/29 18:42:07;;;;;;;8.63;4.33;;;;;;;10.11;100.00;99635.81;1742559;82;21290;-79
2023/04/29 18:45:16;;;;;;;9.83;3.98;;;;;;;10.10;100.00;99630.87;1743941;82;21160;-80
2023/04/29 18:48:22;;;;;;;4.12;3.52;;;;;;;10.11;100.00;99632.55;1743979;82;21219;-79
2023/04/29 18:51:28;;;;;;;6.50;3.67;;;;;;;10.07;100.00;99635.85;1742684;82;21184;-80
2023/04/29 18:54:34;;;;;;;3.52;3.22;;;;;;;10.04;100.00;99637.09;1743858;82;21619;-81
2023/04/29 18:57:39;;;;;;;7.00;3.52;;;;;;;10.02;100.00;99631.48;1743836;82;21179;-80
2023/04/29 19:00:45;;;;;;;7.65;3.55;;;;;;;10.07;100.00;99617.60;1742657;82;21219;-80
2023/04/29 19:03:52;;;;;;;4.65;3.65;;;;;;;10.09;100.00;99625.60;1744017;82;21533;-80
2023/04/29 19:06:59;;;;;;;7.37;4.37;;;;;;;10.21;100.00;99610.42;1742572;82;21200;-80
2023/04/29 19:10:04;;;;;;;7.00;4.12;;;;;;;10.28;100.00;99612.73;1743869;82;21507;-80
2023/04/29 19:13:10;;;;;;;4.65;4.03;;;;;;;10.23;100.00;99606.97;1743842;82;21184;-81
2023/04/29 19:16:15;;;;;;;9.43;4.00;;;;;;;10.19;100.00;99609.75;1742389;82;21172;-80
2023/04/29 19:19:20;;;;;;;6.60;3.85;;;;;;;9.94;100.00;99611.43;1742416;81;21794;-80
2023/04/29 19:22:29;;;;;;;5.03;3.50;;;;;;;9.97;100.00;99615.66;1743774;82;21295;-80
2023/04/29 19:25:34;;;;;;;5.28;4.03;;;;;;;9.98;100.00;99610.02;1743894;82;21176;-80
2023/04/29 19:28:40;;;;;;;9.90;3.55;;;;;;;9.99;100.00;99611.70;1743834;82;21188;-80
2023/04/29 19:31:46;;;;;;;8.23;4.03;;;;;;;10.10;100.00;99614.99;1742939;82;21263;-80
2023/04/29 19:34:51;;;;;;;8.13;4.05;;;;;;;10.11;100.00;99608.48;1743825;82;21180;-80
2023/04/29 19:37:57;;;;;;;8.28;3.50;;;;;;;10.13;100.00;99604.53;1744066;82;21715;-80